CheckWX is a tool to help pilots better visualize weather data.  It is not intended as a substitute for an official pre-flight weather briefing.

14:01:53 UTC

KJAX TAF
Jacksonville International Airport
Jacksonville, Florida, USA
KJAX 151319Z 1513/1612 03008KT P6SM VCTS SCT005 SCT020CB BKN040 TEMPO 1513/1515 3SM SHRA BKN020 FM151500 04018G26KT P6SM VCSH SCT015 OVC025 FM152000 03020G30KT P6SM VCSH SCT025 BKN080 FM152300 03012KT P6SM SCT025 BKN070 FM160600 01008KT P6SM SCT030 BKN060

Sep-15@
13:00 UTC

Sep-15 @ 13:00 UTC

Sep-15@
15:00 UTC

Sep-15 @ 15:00 UTC

KJAX 151319Z 1513/1612 03008KT P6SM VCTS SCT005 SCT020CB BKN040
Wind
  • 030° at 8 KTS
Conditions
Area Thunderstorm
Cloud Levels
  • Scattered at 500' AGL
  • Scattered at 2,000' AGL
  • Broken at 4,000' AGL

Sep-15@
13:00 UTC

Sep-15 @ 13:00 UTC

Sep-15@
15:00 UTC

Sep-15 @ 15:00 UTC

TEMPO 1513/1515 3SM SHRA BKN020

Temporary

Temporary Changes expected for less than half the time period

Conditions
Rain
Cloud Levels
  • Broken at 2,000' AGL

Sep-15@
15:00 UTC

Sep-15 @ 15:00 UTC

Sep-15@
20:00 UTC

Sep-15 @ 20:00 UTC

FM151500 04018G26KT P6SM VCSH SCT015 OVC025

From

From Standard forecast or significant change

Wind
  • 040° at 18 KTS
  • {Gusting to 26 KTS
Cloud Levels
  • Scattered at 1,500' AGL
  • Overcast at 2,500' AGL

Sep-15@
20:00 UTC

Sep-15 @ 20:00 UTC

Sep-15@
23:00 UTC

Sep-15 @ 23:00 UTC

FM152000 03020G30KT P6SM VCSH SCT025 BKN080

From

From Standard forecast or significant change

Wind
  • 030° at 20 KTS
  • {Gusting to 30 KTS
Cloud Levels
  • Scattered at 2,500' AGL
  • Broken at 8,000' AGL

Sep-15@
23:00 UTC

Sep-15 @ 23:00 UTC

Sep-16@
06:00 UTC

Sep-16 @ 06:00 UTC

FM152300 03012KT P6SM SCT025 BKN070

From

From Standard forecast or significant change

Wind
  • 030° at 12 KTS
Cloud Levels
  • Scattered at 2,500' AGL
  • Broken at 7,000' AGL

Sep-16@
06:00 UTC

Sep-16 @ 06:00 UTC

Sep-16@
12:00 UTC

Sep-16 @ 12:00 UTC

FM160600 01008KT P6SM SCT030 BKN060

From

From Standard forecast or significant change

Wind
  • 010° at 8 KTS
Cloud Levels
  • Scattered at 3,000' AGL
  • Broken at 6,000' AGL